• Join FlightAware (Why Join?)
  • Login
  • US Flag 
Rudolph Flight #1: Arrived! 
06:19AM EST


 

Airport Tracker/Info


-or-


 

Live Flight TrackerFlight Track Log ✈ SWA2975 ✈ 30-Jun-2013 ✈ KDEN - KSLC

Flight Track Log - Related Links

Times and Time Zones

All times are in EDT time to prevent confusion due to time zone crossing. See the SWA2975 flight status page for this flight to view local times or setup timezone preferences in your user account.

Time Position Orientation Groundspeed Altitude Reporting Facility
EDT Latitude Longitude Course Direction KTS MPH feet Rate Location/Type
04:14PM 39.8520 -104.6940 270° West 26 30  Level FlightAware
04:18PM 39.9230 -104.8130 308° West 275 316 9,100 2,340 Climbing FlightAware
04:18PM 39.9350 -104.8640 287° West 286 329 9,800 660 Climbing FlightAware
04:18PM 39.9410 -104.9010 282° West 295 339 9,700 480 Descending FlightAware
04:19PM 39.9333 -104.9000 270° West 288 331 10,000 2,280 Climbing Denver TRACON
04:19PM 39.9460 -104.9760 275° West 293 337 11,300 2,760 Climbing FlightAware
04:20PM 39.9560 -105.0670 278° West 294 338 14,300 2,160 Climbing FlightAware
04:24PM 39.9333 -105.5729 270° West  Level FlightAware Approximate
04:24PM 40.0460 -105.4730 270° West 343 395 21,100  Level FlightAware
04:24PM 40.0860 -105.5430 307° West 345 397 22,800 2,220 Climbing FlightAware
04:25PM 40.1310 -105.6180 308° West 353 406 24,300 1,920 Climbing FlightAware
04:26PM 40.1670 -105.6870 304° West 367 422 25,500 1,680 Climbing FlightAware
04:26PM 40.1830 -105.7140 308° West 369 425 25,900 480 Climbing FlightAware
04:27PM 40.2370 -105.7740 320° Northwest 370 426 26,000 60 Climbing FlightAware
04:27PM 40.2930 -105.8340 321° Northwest 368 423 26,000  Level FlightAware
04:28PM 40.3320 -105.8950 310° West 369 425 26,000  Level FlightAware
04:29PM 40.3590 -105.9950 290° West 360 414 26,000  Level FlightAware
04:29PM 40.3780 -106.0580 292° West 360 414 26,000 420 Level FlightAware
04:31PM 40.3810 -106.2090 272° West 376 433 26,800 960 Climbing FlightAware
04:31PM 40.3690 -106.3390 263° West 382 440 28,000 780 Climbing FlightAware
04:32PM 40.3610 -106.4210 263° West 382 440 28,000  Level FlightAware
04:33PM 40.3520 -106.5130 263° West 382 440 28,000  Level FlightAware
04:34PM 40.3460 -106.5840 264° West 382 440 28,000  Level FlightAware
04:34PM 40.3370 -106.6780 263° West 382 440 28,000  Level FlightAware
04:35PM 40.3300 -106.7520 263° West 382 440 28,000 1,380 Level FlightAware
04:38PM 40.2220 -107.2580 255° West 439 505 32,900 1,680 Climbing FlightAware
04:38PM 40.2150 -107.3680 265° West 435 501 34,000 1,620 Climbing FlightAware
04:39PM 40.2080 -107.4840 266° West 428 493 35,200 1,380 Climbing FlightAware
04:40PM 40.2010 -107.5890 265° West 425 489 36,000 540 Climbing FlightAware
04:41PM 40.1940 -107.7010 265° West 424 488 36,000  Level FlightAware
04:41PM 40.1860 -107.8110 265° West 424 488 36,000  Level FlightAware
04:42PM 40.1790 -107.9160 265° West 424 488 36,000  Level FlightAware
04:43PM 40.1720 -108.0170 265° West 424 488 36,000  Level FlightAware
04:43PM 40.1640 -108.1260 265° West 426 490 36,000  Level FlightAware
04:44PM 40.1570 -108.2340 265° West 426 490 36,000  Level FlightAware
04:45PM 40.1490 -108.3380 264° West 427 491 36,000  Level FlightAware
04:45PM 40.1420 -108.4400 265° West 429 494 36,000  Level FlightAware
04:46PM 40.1330 -108.5600 264° West 430 495 36,000  Level FlightAware
04:47PM 40.1250 -108.6650 264° West 435 501 36,000  Level FlightAware
04:48PM 40.1160 -108.7760 264° West 435 501 36,000  Level FlightAware
04:48PM 40.1090 -108.8920 266° West 432 497 36,000  Level FlightAware
04:49PM 40.1120 -108.9830 272° West 431 496 36,000  Level FlightAware
04:50PM 40.1170 -109.1090 273° West 431 496 36,000  Level FlightAware
04:50PM 40.1200 -109.2060 272° West 433 498 36,000  Level FlightAware
04:51PM 40.1230 -109.3070 272° West 434 499 36,000  Level FlightAware
04:52PM 40.1270 -109.4210 273° West 433 498 36,000  Level FlightAware
04:52PM 40.1310 -109.5390 273° West 434 499 36,000  Level FlightAware
04:53PM 40.1350 -109.6390 273° West 432 497 36,000 -480 Level FlightAware
04:54PM 40.1380 -109.7520 272° West 434 499 35,400 -1,020 Descending FlightAware
04:55PM 40.1420 -109.8710 273° West 432 497 34,600 -1,080 Descending FlightAware
04:55PM 40.1450 -109.9700 272° West 425 489 33,900 -1,080 Descending FlightAware
04:56PM 40.1480 -110.0740 272° West 421 484 33,200 -1,080 Descending FlightAware
04:57PM 40.1490 -110.1980 271° West 416 479 32,400 -1,020 Descending FlightAware
04:57PM 40.1480 -110.2820 269° West 412 474 31,800 -1,020 Descending FlightAware
04:58PM 40.1470 -110.4010 269° West 409 471 31,000 -600 Descending FlightAware
04:59PM 40.1460 -110.4810 269° West 409 471 31,000  Level FlightAware
05:01PM 40.1430 -110.7040 269° West 409 471 31,000 -2,340 Level FlightAware
05:01PM 40.1420 -110.8440 270° West 376 433 25,400 -4,260 Descending FlightAware
05:02PM 40.1400 -110.9170 268° West 376 433 25,400  Level FlightAware
05:03PM 40.1370 -111.0120 268° West 376 433 25,400  Level FlightAware
05:03PM 40.1350 -111.0830 268° West 376 433 25,400  Level FlightAware
05:04PM 40.1330 -111.1760 268° West 376 433 25,400 -1,740 Level FlightAware
05:10PM 40.2770 -111.8140 287° West 295 339 14,400 -2,100 Descending FlightAware
05:10PM 40.3250 -111.8660 320° Northwest 283 326 12,300 -1,620 Descending FlightAware
05:11PM 40.3760 -111.9180 322° Northwest 282 325 11,900 -1,020 Descending FlightAware
05:12PM 40.4230 -111.9320 347° North 266 306 10,900 -1,200 Descending FlightAware
05:13PM 40.4990 -111.9410 355° North 242 278 10,000 -840 Descending FlightAware
05:13PM 40.5300 -111.9450 354° North 233 268 9,600 -1,140 Descending FlightAware
05:14PM 40.5620 -111.9480 356° North 233 268 8,900 -1,260 Descending FlightAware
05:15PM 40.6290 -111.9570 354° North 215 247 7,300 -1,380 Descending FlightAware
05:16PM 40.6690 -111.9610 356° North 194 223 6,400 -1,500 Descending FlightAware
05:16PM 40.6880 -111.9640 353° North 166 191 6,100 -1,320 Descending FlightAware
05:16PM 40.7080 -111.9650 358° North 159 183 5,400 -1,380 Descending FlightAware
05:17PM 40.7270 -111.9680 353° North 155 178 4,900 -900 Descending FlightAware
05:17PM 40.7360 -111.9690 355° North 157 181 4,800 -600 Descending FlightAware
05:18PM 40.7560 -111.9710 356° North 155 178 4,500 -420 Descending FlightAware
05:18PM 40.7860 -111.9750 354° North 156 180 4,300 -300 Descending FlightAware
05:26PM 40.7833 -111.9667 North  Level FlightAware Approximate